sensor_id;sensor_type;location;lat;lon;timestamp;temperature;humidity
72326;DHT22;60278;47.980;18.780;2022-08-19T00:01:10;29.03;47.74
72326;DHT22;60278;47.980;18.780;2022-08-19T00:04:42;28.97;47.86
72326;DHT22;60278;47.980;18.780;2022-08-19T00:08:13;28.93;48.09
72326;DHT22;60278;47.980;18.780;2022-08-19T00:11:45;28.87;48.14
72326;DHT22;60278;47.980;18.780;2022-08-19T00:15:19;28.80;48.35
72326;DHT22;60278;47.980;18.780;2022-08-19T00:18:51;28.69;48.65
72326;DHT22;60278;47.980;18.780;2022-08-19T00:22:22;28.76;48.44
72326;DHT22;60278;47.980;18.780;2022-08-19T00:25:53;28.73;48.62
72326;DHT22;60278;47.980;18.780;2022-08-19T00:29:24;28.83;48.38
72326;DHT22;60278;47.980;18.780;2022-08-19T00:32:56;28.67;48.74
72326;DHT22;60278;47.980;18.780;2022-08-19T00:36:28;28.72;48.72
72326;DHT22;60278;47.980;18.780;2022-08-19T00:39:59;28.57;49.07
72326;DHT22;60278;47.980;18.780;2022-08-19T00:43:30;28.51;49.20
72326;DHT22;60278;47.980;18.780;2022-08-19T00:47:02;28.33;49.62
72326;DHT22;60278;47.980;18.780;2022-08-19T00:50:33;28.22;50.01
72326;DHT22;60278;47.980;18.780;2022-08-19T00:54:05;28.08;50.20
72326;DHT22;60278;47.980;18.780;2022-08-19T00:57:38;27.70;51.44
72326;DHT22;60278;47.980;18.780;2022-08-19T01:01:10;27.47;52.36
72326;DHT22;60278;47.980;18.780;2022-08-19T01:04:42;27.17;52.92
72326;DHT22;60278;47.980;18.780;2022-08-19T01:08:14;27.03;53.48
72326;DHT22;60278;47.980;18.780;2022-08-19T01:11:46;26.67;54.58
72326;DHT22;60278;47.980;18.780;2022-08-19T01:15:23;26.61;54.65
72326;DHT22;60278;47.980;18.780;2022-08-19T01:18:55;26.76;54.43
72326;DHT22;60278;47.980;18.780;2022-08-19T01:22:31;26.48;55.56
72326;DHT22;60278;47.980;18.780;2022-08-19T01:26:03;26.25;56.05
72326;DHT22;60278;47.980;18.780;2022-08-19T01:29:37;26.34;55.69
72326;DHT22;60278;47.980;18.780;2022-08-19T01:33:09;26.17;56.12
72326;DHT22;60278;47.980;18.780;2022-08-19T01:36:42;26.06;56.18
72326;DHT22;60278;47.980;18.780;2022-08-19T01:40:19;26.23;55.79
72326;DHT22;60278;47.980;18.780;2022-08-19T01:43:52;26.13;56.06
72326;DHT22;60278;47.980;18.780;2022-08-19T01:47:23;25.98;56.55
72326;DHT22;60278;47.980;18.780;2022-08-19T01:50:55;25.92;56.81
72326;DHT22;60278;47.980;18.780;2022-08-19T01:54:26;25.63;57.74
72326;DHT22;60278;47.980;18.780;2022-08-19T01:58:00;25.65;57.86
72326;DHT22;60278;47.980;18.780;2022-08-19T02:01:32;25.07;59.60
72326;DHT22;60278;47.980;18.780;2022-08-19T02:05:06;24.97;60.17
72326;DHT22;60278;47.980;18.780;2022-08-19T02:08:39;24.71;61.12
72326;DHT22;60278;47.980;18.780;2022-08-19T02:12:11;24.70;61.07
72326;DHT22;60278;47.980;18.780;2022-08-19T02:15:42;24.73;60.89
72326;DHT22;60278;47.980;18.780;2022-08-19T02:19:13;24.73;61.14
72326;DHT22;60278;47.980;18.780;2022-08-19T02:22:44;24.49;61.88
72326;DHT22;60278;47.980;18.780;2022-08-19T02:26:16;24.47;62.19
72326;DHT22;60278;47.980;18.780;2022-08-19T02:29:49;24.35;62.54
72326;DHT22;60278;47.980;18.780;2022-08-19T02:33:21;24.35;62.60
72326;DHT22;60278;47.980;18.780;2022-08-19T02:36:52;24.40;62.45
72326;DHT22;60278;47.980;18.780;2022-08-19T02:40:23;24.25;63.07
72326;DHT22;60278;47.980;18.780;2022-08-19T02:43:55;24.17;63.19
72326;DHT22;60278;47.980;18.780;2022-08-19T02:47:27;24.09;63.64
72326;DHT22;60278;47.980;18.780;2022-08-19T02:50:58;24.01;63.87
72326;DHT22;60278;47.980;18.780;2022-08-19T02:54:30;24.02;63.86
72326;DHT22;60278;47.980;18.780;2022-08-19T02:58:01;24.01;63.87
72326;DHT22;60278;47.980;18.780;2022-08-19T03:01:33;23.94;64.45
72326;DHT22;60278;47.980;18.780;2022-08-19T03:05:05;23.89;64.40
72326;DHT22;60278;47.980;18.780;2022-08-19T03:08:41;24.06;63.72
72326;DHT22;60278;47.980;18.780;2022-08-19T03:12:12;24.09;63.68
72326;DHT22;60278;47.980;18.780;2022-08-19T03:15:45;24.22;63.30
72326;DHT22;60278;47.980;18.780;2022-08-19T03:19:18;24.02;63.80
72326;DHT22;60278;47.980;18.780;2022-08-19T03:22:51;23.90;64.25
72326;DHT22;60278;47.980;18.780;2022-08-19T03:26:22;23.98;64.05
72326;DHT22;60278;47.980;18.780;2022-08-19T03:29:54;23.81;64.46
72326;DHT22;60278;47.980;18.780;2022-08-19T03:33:26;23.84;64.55
72326;DHT22;60278;47.980;18.780;2022-08-19T03:37:02;23.69;64.95
72326;DHT22;60278;47.980;18.780;2022-08-19T03:40:36;23.74;64.91
72326;DHT22;60278;47.980;18.780;2022-08-19T03:44:07;23.67;65.17
72326;DHT22;60278;47.980;18.780;2022-08-19T03:47:39;23.69;65.00
72326;DHT22;60278;47.980;18.780;2022-08-19T03:51:19;23.44;65.83
72326;DHT22;60278;47.980;18.780;2022-08-19T03:54:51;23.61;65.33
72326;DHT22;60278;47.980;18.780;2022-08-19T03:58:23;23.41;65.92
72326;DHT22;60278;47.980;18.780;2022-08-19T04:01:58;23.40;66.22
72326;DHT22;60278;47.980;18.780;2022-08-19T04:05:30;23.53;65.70
72326;DHT22;60278;47.980;18.780;2022-08-19T04:09:03;23.74;64.93
72326;DHT22;60278;47.980;18.780;2022-08-19T04:12:35;23.78;64.89
72326;DHT22;60278;47.980;18.780;2022-08-19T04:16:07;23.71;65.27
72326;DHT22;60278;47.980;18.780;2022-08-19T04:19:40;23.96;64.55
72326;DHT22;60278;47.980;18.780;2022-08-19T04:23:13;23.99;64.52
72326;DHT22;60278;47.980;18.780;2022-08-19T04:26:45;24.09;64.04
72326;DHT22;60278;47.980;18.780;2022-08-19T04:30:16;24.01;64.57
72326;DHT22;60278;47.980;18.780;2022-08-19T04:33:48;24.26;63.87
72326;DHT22;60278;47.980;18.780;2022-08-19T04:37:19;24.35;63.69
72326;DHT22;60278;47.980;18.780;2022-08-19T04:40:51;24.26;64.07
72326;DHT22;60278;47.980;18.780;2022-08-19T04:44:41;24.15;64.79
72326;DHT22;60278;47.980;18.780;2022-08-19T04:48:12;24.10;64.89
72326;DHT22;60278;47.980;18.780;2022-08-19T04:51:45;24.16;64.70
72326;DHT22;60278;47.980;18.780;2022-08-19T04:55:18;24.05;65.53
72326;DHT22;60278;47.980;18.780;2022-08-19T04:58:49;24.40;64.38
72326;DHT22;60278;47.980;18.780;2022-08-19T05:02:23;24.22;64.92
72326;DHT22;60278;47.980;18.780;2022-08-19T05:05:55;24.23;65.14
72326;DHT22;60278;47.980;18.780;2022-08-19T05:09:26;24.52;64.26
72326;DHT22;60278;47.980;18.780;2022-08-19T05:12:57;24.61;63.72
72326;DHT22;60278;47.980;18.780;2022-08-19T05:16:28;24.61;63.84
72326;DHT22;60278;47.980;18.780;2022-08-19T05:20:00;24.59;63.70
72326;DHT22;60278;47.980;18.780;2022-08-19T05:23:49;24.74;63.29
72326;DHT22;60278;47.980;18.780;2022-08-19T05:27:20;24.73;63.26
72326;DHT22;60278;47.980;18.780;2022-08-19T05:30:51;24.88;63.32
72326;DHT22;60278;47.980;18.780;2022-08-19T05:34:24;25.08;62.42
72326;DHT22;60278;47.980;18.780;2022-08-19T05:37:56;25.15;62.44
72326;DHT22;60278;47.980;18.780;2022-08-19T05:41:27;25.32;61.94
72326;DHT22;60278;47.980;18.780;2022-08-19T05:45:01;25.52;61.52
72326;DHT22;60278;47.980;18.780;2022-08-19T05:48:34;25.67;61.40
72326;DHT22;60278;47.980;18.780;2022-08-19T05:52:08;25.85;60.92
72326;DHT22;60278;47.980;18.780;2022-08-19T05:55:39;26.17;59.74
72326;DHT22;60278;47.980;18.780;2022-08-19T05:59:10;26.24;59.26
72326;DHT22;60278;47.980;18.780;2022-08-19T06:02:41;26.56;58.89
72326;DHT22;60278;47.980;18.780;2022-08-19T06:06:15;26.82;57.81
72326;DHT22;60278;47.980;18.780;2022-08-19T06:09:46;26.92;57.78
72326;DHT22;60278;47.980;18.780;2022-08-19T06:13:17;27.13;57.08
72326;DHT22;60278;47.980;18.780;2022-08-19T06:16:50;27.26;56.72
72326;DHT22;60278;47.980;18.780;2022-08-19T06:20:24;27.19;57.08
72326;DHT22;60278;47.980;18.780;2022-08-19T06:23:56;27.33;56.60
72326;DHT22;60278;47.980;18.780;2022-08-19T06:27:28;27.58;56.06
72326;DHT22;60278;47.980;18.780;2022-08-19T06:31:06;27.64;55.78
72326;DHT22;60278;47.980;18.780;2022-08-19T06:34:37;27.40;56.38
72326;DHT22;60278;47.980;18.780;2022-08-19T06:38:08;27.85;55.25
72326;DHT22;60278;47.980;18.780;2022-08-19T06:41:43;28.26;54.79
72326;DHT22;60278;47.980;18.780;2022-08-19T06:45:22;28.60;53.40
72326;DHT22;60278;47.980;18.780;2022-08-19T06:48:54;29.08;52.24
72326;DHT22;60278;47.980;18.780;2022-08-19T06:52:25;28.97;53.12
72326;DHT22;60278;47.980;18.780;2022-08-19T06:55:56;28.94;53.09
72326;DHT22;60278;47.980;18.780;2022-08-19T06:59:31;28.87;53.43
72326;DHT22;60278;47.980;18.780;2022-08-19T07:03:05;29.11;52.37
72326;DHT22;60278;47.980;18.780;2022-08-19T07:06:36;29.48;51.81
72326;DHT22;60278;47.980;18.780;2022-08-19T07:10:08;30.47;50.31
72326;DHT22;60278;47.980;18.780;2022-08-19T07:13:40;30.50;49.19
72326;DHT22;60278;47.980;18.780;2022-08-19T07:17:13;30.78;48.43
72326;DHT22;60278;47.980;18.780;2022-08-19T07:20:45;31.21;47.48
72326;DHT22;60278;47.980;18.780;2022-08-19T07:24:17;31.26;47.44
72326;DHT22;60278;47.980;18.780;2022-08-19T07:27:50;32.21;45.78
72326;DHT22;60278;47.980;18.780;2022-08-19T07:31:24;32.42;45.07
72326;DHT22;60278;47.980;18.780;2022-08-19T07:34:56;33.63;42.91
72326;DHT22;60278;47.980;18.780;2022-08-19T07:38:27;32.61;44.07
72326;DHT22;60278;47.980;18.780;2022-08-19T07:42:01;33.26;43.68
72326;DHT22;60278;47.980;18.780;2022-08-19T07:45:32;33.43;42.40
72326;DHT22;60278;47.980;18.780;2022-08-19T07:49:04;33.74;39.45
72326;DHT22;60278;47.980;18.780;2022-08-19T07:52:36;34.14;40.22
72326;DHT22;60278;47.980;18.780;2022-08-19T07:56:09;34.53;38.98
72326;DHT22;60278;47.980;18.780;2022-08-19T07:59:41;35.18;37.45
72326;DHT22;60278;47.980;18.780;2022-08-19T08:03:14;35.13;37.26
72326;DHT22;60278;47.980;18.780;2022-08-19T08:06:45;34.79;36.94
72326;DHT22;60278;47.980;18.780;2022-08-19T08:10:34;34.92;37.20
72326;DHT22;60278;47.980;18.780;2022-08-19T08:14:06;35.21;36.46
72326;DHT22;60278;47.980;18.780;2022-08-19T08:17:37;34.97;36.53
72326;DHT22;60278;47.980;18.780;2022-08-19T08:21:09;35.31;36.22
72326;DHT22;60278;47.980;18.780;2022-08-19T08:24:40;35.00;36.18
72326;DHT22;60278;47.980;18.780;2022-08-19T08:28:11;34.92;36.42
72326;DHT22;60278;47.980;18.780;2022-08-19T08:31:43;34.79;35.75
72326;DHT22;60278;47.980;18.780;2022-08-19T08:35:18;33.67;37.38
72326;DHT22;60278;47.980;18.780;2022-08-19T08:38:50;33.15;39.02
72326;DHT22;60278;47.980;18.780;2022-08-19T08:42:32;32.72;38.96
72326;DHT22;60278;47.980;18.780;2022-08-19T08:46:41;32.71;39.06
72326;DHT22;60278;47.980;18.780;2022-08-19T08:50:40;32.67;39.40
72326;DHT22;60278;47.980;18.780;2022-08-19T08:54:14;33.10;38.52
72326;DHT22;60278;47.980;18.780;2022-08-19T09:01:19;33.71;37.60
72326;DHT22;60278;47.980;18.780;2022-08-19T09:04:51;33.73;37.61
72326;DHT22;60278;47.980;18.780;2022-08-19T09:15:58;33.61;38.40
72326;DHT22;60278;47.980;18.780;2022-08-19T09:19:32;33.47;38.91
72326;DHT22;60278;47.980;18.780;2022-08-19T09:23:03;33.70;38.70
72326;DHT22;60278;47.980;18.780;2022-08-19T09:26:35;33.25;39.56
72326;DHT22;60278;47.980;18.780;2022-08-19T09:30:07;33.19;39.59
72326;DHT22;60278;47.980;18.780;2022-08-19T09:33:38;33.30;39.62
72326;DHT22;60278;47.980;18.780;2022-08-19T09:37:10;33.39;39.81
72326;DHT22;60278;47.980;18.780;2022-08-19T09:40:41;33.53;39.64
72326;DHT22;60278;47.980;18.780;2022-08-19T09:44:12;33.53;39.80
72326;DHT22;60278;47.980;18.780;2022-08-19T09:47:43;33.37;40.11
72326;DHT22;60278;47.980;18.780;2022-08-19T09:51:18;33.68;39.69
72326;DHT22;60278;47.980;18.780;2022-08-19T09:54:52;33.47;40.23
72326;DHT22;60278;47.980;18.780;2022-08-19T09:58:23;33.73;40.02
72326;DHT22;60278;47.980;18.780;2022-08-19T10:01:58;33.88;39.61
72326;DHT22;60278;47.980;18.780;2022-08-19T10:05:29;34.15;38.37
72326;DHT22;60278;47.980;18.780;2022-08-19T10:09:18;34.46;39.00
72326;DHT22;60278;47.980;18.780;2022-08-19T10:12:49;34.45;38.19
72326;DHT22;60278;47.980;18.780;2022-08-19T10:16:22;34.80;37.67
72326;DHT22;60278;47.980;18.780;2022-08-19T10:19:54;35.41;37.69
72326;DHT22;60278;47.980;18.780;2022-08-19T10:23:25;35.61;37.13
72326;DHT22;60278;47.980;18.780;2022-08-19T10:26:56;35.55;36.88
72326;DHT22;60278;47.980;18.780;2022-08-19T10:30:27;35.20;36.65
72326;DHT22;60278;47.980;18.780;2022-08-19T10:33:59;34.99;36.02
72326;DHT22;60278;47.980;18.780;2022-08-19T10:37:31;35.30;36.00
72326;DHT22;60278;47.980;18.780;2022-08-19T10:41:13;35.81;35.77
72326;DHT22;60278;47.980;18.780;2022-08-19T10:44:44;36.09;35.83
72326;DHT22;60278;47.980;18.780;2022-08-19T10:48:17;36.77;33.98
72326;DHT22;60278;47.980;18.780;2022-08-19T10:51:48;37.32;32.83
72326;DHT22;60278;47.980;18.780;2022-08-19T10:55:37;37.82;32.42
72326;DHT22;60278;47.980;18.780;2022-08-19T10:59:29;38.19;31.48
72326;DHT22;60278;47.980;18.780;2022-08-19T11:03:00;37.62;31.90
72326;DHT22;60278;47.980;18.780;2022-08-19T11:06:32;38.10;32.07
72326;DHT22;60278;47.980;18.780;2022-08-19T11:10:03;38.47;30.75
72326;DHT22;60278;47.980;18.780;2022-08-19T11:13:37;37.69;32.03
72326;DHT22;60278;47.980;18.780;2022-08-19T11:17:08;37.54;31.27
72326;DHT22;60278;47.980;18.780;2022-08-19T11:20:41;37.81;31.09
72326;DHT22;60278;47.980;18.780;2022-08-19T11:24:24;38.10;31.43
72326;DHT22;60278;47.980;18.780;2022-08-19T11:27:55;38.09;31.06
72326;DHT22;60278;47.980;18.780;2022-08-19T11:31:29;37.72;31.36
72326;DHT22;60278;47.980;18.780;2022-08-19T11:35:01;37.94;31.02
72326;DHT22;60278;47.980;18.780;2022-08-19T11:38:32;36.67;32.96
72326;DHT22;60278;47.980;18.780;2022-08-19T11:42:06;36.94;32.78
72326;DHT22;60278;47.980;18.780;2022-08-19T11:45:57;37.08;32.52
72326;DHT22;60278;47.980;18.780;2022-08-19T11:49:28;36.86;32.39
72326;DHT22;60278;47.980;18.780;2022-08-19T11:52:59;37.54;31.79
72326;DHT22;60278;47.980;18.780;2022-08-19T11:56:31;37.65;31.96
72326;DHT22;60278;47.980;18.780;2022-08-19T12:00:04;37.41;32.10
72326;DHT22;60278;47.980;18.780;2022-08-19T12:03:37;37.00;32.14
72326;DHT22;60278;47.980;18.780;2022-08-19T12:07:08;37.22;32.04
72326;DHT22;60278;47.980;18.780;2022-08-19T12:10:40;37.52;32.02
72326;DHT22;60278;47.980;18.780;2022-08-19T12:14:12;37.27;32.26
72326;DHT22;60278;47.980;18.780;2022-08-19T12:17:44;37.38;31.86
72326;DHT22;60278;47.980;18.780;2022-08-19T12:21:18;37.10;32.26
72326;DHT22;60278;47.980;18.780;2022-08-19T12:24:51;37.04;32.68
72326;DHT22;60278;47.980;18.780;2022-08-19T12:28:24;37.18;33.26
72326;DHT22;60278;47.980;18.780;2022-08-19T12:31:57;36.57;33.21
72326;DHT22;60278;47.980;18.780;2022-08-19T12:35:31;36.59;33.92
72326;DHT22;60278;47.980;18.780;2022-08-19T12:39:02;36.16;34.02
72326;DHT22;60278;47.980;18.780;2022-08-19T12:42:34;36.12;34.34
72326;DHT22;60278;47.980;18.780;2022-08-19T12:46:06;36.29;33.98
72326;DHT22;60278;47.980;18.780;2022-08-19T12:49:38;36.12;34.33
72326;DHT22;60278;47.980;18.780;2022-08-19T12:53:10;36.26;34.42
72326;DHT22;60278;47.980;18.780;2022-08-19T12:56:41;36.16;34.93
72326;DHT22;60278;47.980;18.780;2022-08-19T13:00:17;36.19;34.27
72326;DHT22;60278;47.980;18.780;2022-08-19T13:03:48;36.09;34.30
72326;DHT22;60278;47.980;18.780;2022-08-19T13:07:19;35.89;33.79
72326;DHT22;60278;47.980;18.780;2022-08-19T13:10:50;35.71;34.30
72326;DHT22;60278;47.980;18.780;2022-08-19T13:14:21;35.98;33.59
72326;DHT22;60278;47.980;18.780;2022-08-19T13:17:53;36.21;33.23
72326;DHT22;60278;47.980;18.780;2022-08-19T13:21:26;35.74;33.97
72326;DHT22;60278;47.980;18.780;2022-08-19T13:24:58;35.82;33.89
72326;DHT22;60278;47.980;18.780;2022-08-19T13:28:29;35.80;34.04
72326;DHT22;60278;47.980;18.780;2022-08-19T13:32:20;35.57;34.24
72326;DHT22;60278;47.980;18.780;2022-08-19T13:36:09;35.47;34.36
72326;DHT22;60278;47.980;18.780;2022-08-19T13:39:40;35.27;34.84
72326;DHT22;60278;47.980;18.780;2022-08-19T13:43:11;33.42;41.16
72326;DHT22;60278;47.980;18.780;2022-08-19T13:46:42;32.48;43.69
72326;DHT22;60278;47.980;18.780;2022-08-19T13:50:19;32.34;44.24
72326;DHT22;60278;47.980;18.780;2022-08-19T13:53:50;31.66;45.40
72326;DHT22;60278;47.980;18.780;2022-08-19T13:57:22;31.33;45.96
72326;DHT22;60278;47.980;18.780;2022-08-19T14:00:53;31.25;46.20
72326;DHT22;60278;47.980;18.780;2022-08-19T14:04:24;31.23;47.84
72326;DHT22;60278;47.980;18.780;2022-08-19T14:07:56;27.78;67.15
72326;DHT22;60278;47.980;18.780;2022-08-19T14:11:27;27.13;69.00
72326;DHT22;60278;47.980;18.780;2022-08-19T14:14:59;27.13;67.21
72326;DHT22;60278;47.980;18.780;2022-08-19T14:18:30;27.50;66.37
72326;DHT22;60278;47.980;18.780;2022-08-19T14:22:02;27.78;63.82
72326;DHT22;60278;47.980;18.780;2022-08-19T14:25:33;28.14;58.81
72326;DHT22;60278;47.980;18.780;2022-08-19T14:29:04;28.57;57.76
72326;DHT22;60278;47.980;18.780;2022-08-19T14:32:35;29.00;57.69
72326;DHT22;60278;47.980;18.780;2022-08-19T14:36:07;29.50;52.88
72326;DHT22;60278;47.980;18.780;2022-08-19T14:39:38;29.72;52.42
72326;DHT22;60278;47.980;18.780;2022-08-19T14:43:10;29.89;51.13
72326;DHT22;60278;47.980;18.780;2022-08-19T14:46:41;30.08;49.11
72326;DHT22;60278;47.980;18.780;2022-08-19T14:50:12;30.32;47.67
72326;DHT22;60278;47.980;18.780;2022-08-19T14:53:44;30.56;47.91
72326;DHT22;60278;47.980;18.780;2022-08-19T14:57:15;30.57;47.14
72326;DHT22;60278;47.980;18.780;2022-08-19T15:00:46;30.27;47.67
72326;DHT22;60278;47.980;18.780;2022-08-19T15:04:18;30.37;46.38
72326;DHT22;60278;47.980;18.780;2022-08-19T15:07:49;30.82;47.12
72326;DHT22;60278;47.980;18.780;2022-08-19T15:11:22;30.61;45.15
72326;DHT22;60278;47.980;18.780;2022-08-19T15:14:54;30.60;44.13
72326;DHT22;60278;47.980;18.780;2022-08-19T15:18:25;30.63;44.98
72326;DHT22;60278;47.980;18.780;2022-08-19T15:21:57;30.56;46.21
72326;DHT22;60278;47.980;18.780;2022-08-19T15:25:28;30.43;45.03
72326;DHT22;60278;47.980;18.780;2022-08-19T15:29:00;30.23;45.05
72326;DHT22;60278;47.980;18.780;2022-08-19T15:32:31;30.10;44.92
72326;DHT22;60278;47.980;18.780;2022-08-19T15:36:04;29.95;46.46
72326;DHT22;60278;47.980;18.780;2022-08-19T15:39:35;29.85;44.63
72326;DHT22;60278;47.980;18.780;2022-08-19T15:43:07;29.78;45.26
72326;DHT22;60278;47.980;18.780;2022-08-19T15:46:40;29.71;45.08
72326;DHT22;60278;47.980;18.780;2022-08-19T15:50:15;29.59;47.81
72326;DHT22;60278;47.980;18.780;2022-08-19T15:53:48;29.39;45.11
72326;DHT22;60278;47.980;18.780;2022-08-19T15:57:19;29.25;47.04
72326;DHT22;60278;47.980;18.780;2022-08-19T16:00:53;29.17;48.29
72326;DHT22;60278;47.980;18.780;2022-08-19T16:04:43;29.15;46.49
72326;DHT22;60278;47.980;18.780;2022-08-19T16:08:32;29.10;47.02
72326;DHT22;60278;47.980;18.780;2022-08-19T16:12:04;29.08;47.18
72326;DHT22;60278;47.980;18.780;2022-08-19T16:15:36;28.99;47.57
72326;DHT22;60278;47.980;18.780;2022-08-19T16:19:08;29.03;48.24
72326;DHT22;60278;47.980;18.780;2022-08-19T16:22:39;28.90;48.17
72326;DHT22;60278;47.980;18.780;2022-08-19T16:26:10;28.83;47.15
72326;DHT22;60278;47.980;18.780;2022-08-19T16:29:41;28.77;47.33
72326;DHT22;60278;47.980;18.780;2022-08-19T16:33:12;28.73;48.74
72326;DHT22;60278;47.980;18.780;2022-08-19T16:36:43;28.59;48.85
72326;DHT22;60278;47.980;18.780;2022-08-19T16:40:14;28.48;49.49
72326;DHT22;60278;47.980;18.780;2022-08-19T16:43:46;28.41;48.94
72326;DHT22;60278;47.980;18.780;2022-08-19T16:47:19;28.41;49.19
72326;DHT22;60278;47.980;18.780;2022-08-19T16:50:50;28.38;48.78
72326;DHT22;60278;47.980;18.780;2022-08-19T16:54:21;28.26;49.84
72326;DHT22;60278;47.980;18.780;2022-08-19T16:57:52;28.24;50.00
72326;DHT22;60278;47.980;18.780;2022-08-19T17:01:23;28.18;50.62
72326;DHT22;60278;47.980;18.780;2022-08-19T17:04:54;28.11;49.87
72326;DHT22;60278;47.980;18.780;2022-08-19T17:08:25;28.08;50.66
72326;DHT22;60278;47.980;18.780;2022-08-19T17:11:56;28.18;50.87
72326;DHT22;60278;47.980;18.780;2022-08-19T17:15:28;27.95;52.49
72326;DHT22;60278;47.980;18.780;2022-08-19T17:19:04;27.74;52.96
72326;DHT22;60278;47.980;18.780;2022-08-19T17:22:36;27.70;53.78
72326;DHT22;60278;47.980;18.780;2022-08-19T17:26:07;27.50;54.55
72326;DHT22;60278;47.980;18.780;2022-08-19T17:29:38;27.33;54.31
72326;DHT22;60278;47.980;18.780;2022-08-19T17:33:09;27.29;55.03
72326;DHT22;60278;47.980;18.780;2022-08-19T17:36:41;27.29;54.06
72326;DHT22;60278;47.980;18.780;2022-08-19T17:40:13;27.32;54.21
72326;DHT22;60278;47.980;18.780;2022-08-19T17:43:44;27.29;54.60
72326;DHT22;60278;47.980;18.780;2022-08-19T17:47:15;26.98;56.55
72326;DHT22;60278;47.980;18.780;2022-08-19T17:50:46;26.76;58.20
72326;DHT22;60278;47.980;18.780;2022-08-19T17:54:18;26.20;63.59
72326;DHT22;60278;47.980;18.780;2022-08-19T17:57:50;25.53;68.41
72326;DHT22;60278;47.980;18.780;2022-08-19T18:01:21;25.14;72.40
72326;DHT22;60278;47.980;18.780;2022-08-19T18:04:52;24.60;71.77
72326;DHT22;60278;47.980;18.780;2022-08-19T18:08:23;24.68;73.98
72326;DHT22;60278;47.980;18.780;2022-08-19T18:11:56;24.71;75.11
72326;DHT22;60278;47.980;18.780;2022-08-19T18:15:27;24.67;75.48
72326;DHT22;60278;47.980;18.780;2022-08-19T18:18:58;24.41;74.92
72326;DHT22;60278;47.980;18.780;2022-08-19T18:22:32;24.25;73.48
72326;DHT22;60278;47.980;18.780;2022-08-19T18:26:06;24.10;74.72
72326;DHT22;60278;47.980;18.780;2022-08-19T18:29:37;24.22;71.98
72326;DHT22;60278;47.980;18.780;2022-08-19T18:33:09;24.08;72.31
72326;DHT22;60278;47.980;18.780;2022-08-19T18:36:44;24.30;72.09
72326;DHT22;60278;47.980;18.780;2022-08-19T18:40:18;24.29;71.68
72326;DHT22;60278;47.980;18.780;2022-08-19T18:44:08;24.36;71.03
72326;DHT22;60278;47.980;18.780;2022-08-19T18:47:58;24.44;68.60
72326;DHT22;60278;47.980;18.780;2022-08-19T18:51:48;24.29;72.32
72326;DHT22;60278;47.980;18.780;2022-08-19T18:55:20;23.92;71.62
72326;DHT22;60278;47.980;18.780;2022-08-19T18:58:53;24.32;68.67
72326;DHT22;60278;47.980;18.780;2022-08-19T19:02:25;24.35;69.21
72326;DHT22;60278;47.980;18.780;2022-08-19T19:05:57;24.26;69.38
72326;DHT22;60278;47.980;18.780;2022-08-19T19:09:29;24.19;70.34
72326;DHT22;60278;47.980;18.780;2022-08-19T19:13:00;23.88;74.08
72326;DHT22;60278;47.980;18.780;2022-08-19T19:16:31;23.71;75.04
72326;DHT22;60278;47.980;18.780;2022-08-19T19:20:04;23.78;75.19
72326;DHT22;60278;47.980;18.780;2022-08-19T19:23:36;23.53;75.73
72326;DHT22;60278;47.980;18.780;2022-08-19T19:27:12;23.31;77.02
72326;DHT22;60278;47.980;18.780;2022-08-19T19:30:43;23.17;77.99
72326;DHT22;60278;47.980;18.780;2022-08-19T19:34:15;23.07;77.31
72326;DHT22;60278;47.980;18.780;2022-08-19T19:37:46;22.95;78.17
72326;DHT22;60278;47.980;18.780;2022-08-19T19:41:23;22.80;78.20
72326;DHT22;60278;47.980;18.780;2022-08-19T19:44:55;22.77;78.36
72326;DHT22;60278;47.980;18.780;2022-08-19T19:48:26;22.80;78.93
72326;DHT22;60278;47.980;18.780;2022-08-19T19:51:58;22.66;80.78
72326;DHT22;60278;47.980;18.780;2022-08-19T19:55:29;22.60;82.71
72326;DHT22;60278;47.980;18.780;2022-08-19T19:59:00;22.62;83.09
72326;DHT22;60278;47.980;18.780;2022-08-19T20:02:33;22.12;87.06
72326;DHT22;60278;47.980;18.780;2022-08-19T20:06:06;21.66;87.69
72326;DHT22;60278;47.980;18.780;2022-08-19T20:09:37;21.60;89.11
72326;DHT22;60278;47.980;18.780;2022-08-19T20:13:09;21.83;89.32
72326;DHT22;60278;47.980;18.780;2022-08-19T20:16:41;22.12;87.56
72326;DHT22;60278;47.980;18.780;2022-08-19T20:20:15;22.04;88.36
72326;DHT22;60278;47.980;18.780;2022-08-19T20:23:46;22.02;86.49
72326;DHT22;60278;47.980;18.780;2022-08-19T20:27:18;22.15;86.35
72326;DHT22;60278;47.980;18.780;2022-08-19T20:30:49;22.21;85.36
72326;DHT22;60278;47.980;18.780;2022-08-19T20:34:21;22.02;88.16
72326;DHT22;60278;47.980;18.780;2022-08-19T20:37:52;21.84;88.07
72326;DHT22;60278;47.980;18.780;2022-08-19T20:41:24;21.91;88.78
72326;DHT22;60278;47.980;18.780;2022-08-19T20:44:55;22.04;86.98
72326;DHT22;60278;47.980;18.780;2022-08-19T20:48:28;21.84;87.90
72326;DHT22;60278;47.980;18.780;2022-08-19T20:51:59;21.16;92.25
72326;DHT22;60278;47.980;18.780;2022-08-19T20:55:30;21.28;92.40
72326;DHT22;60278;47.980;18.780;2022-08-19T20:59:01;21.43;91.20
72326;DHT22;60278;47.980;18.780;2022-08-19T21:02:34;21.60;90.58
72326;DHT22;60278;47.980;18.780;2022-08-19T21:06:05;21.74;87.56
72326;DHT22;60278;47.980;18.780;2022-08-19T21:09:36;21.76;86.17
72326;DHT22;60278;47.980;18.780;2022-08-19T21:13:07;21.87;85.11
72326;DHT22;60278;47.980;18.780;2022-08-19T21:16:38;21.77;85.58
72326;DHT22;60278;47.980;18.780;2022-08-19T21:20:10;21.59;86.69
72326;DHT22;60278;47.980;18.780;2022-08-19T21:23:41;21.50;86.87
72326;DHT22;60278;47.980;18.780;2022-08-19T21:27:12;21.36;88.53
72326;DHT22;60278;47.980;18.780;2022-08-19T21:30:43;21.32;88.63
72326;DHT22;60278;47.980;18.780;2022-08-19T21:34:15;21.22;89.18
72326;DHT22;60278;47.980;18.780;2022-08-19T21:37:46;21.25;89.59
72326;DHT22;60278;47.980;18.780;2022-08-19T21:41:17;21.23;90.37
72326;DHT22;60278;47.980;18.780;2022-08-19T21:44:48;21.15;90.86
72326;DHT22;60278;47.980;18.780;2022-08-19T21:48:19;21.06;91.16
72326;DHT22;60278;47.980;18.780;2022-08-19T21:51:50;21.08;91.27
72326;DHT22;60278;47.980;18.780;2022-08-19T21:55:22;21.05;91.28
72326;DHT22;60278;47.980;18.780;2022-08-19T21:58:53;21.08;92.07
72326;DHT22;60278;47.980;18.780;2022-08-19T22:02:26;21.09;92.41
72326;DHT22;60278;47.980;18.780;2022-08-19T22:05:58;20.92;93.46
72326;DHT22;60278;47.980;18.780;2022-08-19T22:09:29;20.92;93.37
72326;DHT22;60278;47.980;18.780;2022-08-19T22:13:00;20.94;94.34